AirNav   Pilot Hours Calculator
 
 1049 users online  

3FL St Cloud Seaplane Base
St Cloud, Florida, USA


FAA INFORMATION EFFECTIVE 26 JANUARY 2023

Location

FAA Identifier: 3FL
Lat/Long: 28-16-27.6600N 081-17-05.9800W
28-16.461000N 081-17.099667W
28.2743500,-81.2849944
(estimated)
Elevation: 54 ft. / 16 m (estimated)
From city: 1 mile N of ST CLOUD, FL
Time zone: UTC -5 (UTC -4 during Daylight Saving Time)
Zip code: 34769

Seaplane Base Operations

Seaplane Base use: Open to the public
Activation date: 06/2020
Control tower: no
ARTCC: JACKSONVILLE CENTER
FSS: SAINT PETERSBURG FLIGHT SERVICE STATION
Attendance: UNATNDD
Segmented circle: no

Seaplane Base Communications

CTAF: 122.9
WX AWOS-3PT at ISM (8 nm W): PHONE 407-847-0533
WX ASOS at MCO (9 nm N): PHONE 407-855-5235
WX ASOS at ORL (16 nm N): 127.25 (407-658-6753)

Nearby radio navigation aids

VOR radial/distance  VOR name  Freq  Var
ORLr171/16.3ORLANDO VORTAC112.2000E
MLBr293/35.8MELBOURNE VOR/DME115.8507W

Seaplane Base Services

Runway Information

Runway 9W/27W

Dimensions: 3000 x 200 ft. / 914 x 61 m
Surface: water
RUNWAY 9W  RUNWAY 27W
Latitude: 28-16.460333N28-16.461500N
Longitude: 081-17.379333W081-16.820000W
Elevation: 54.0 ft.54.0 ft.
Traffic pattern: leftleft

Seaplane Base Ownership and Management from official FAA records

Ownership: Publicly-owned
Owner: CITY OF ST CLOUD
1300 NINTH STREET
ST CLOUD, FL 34769
Phone 407-957-7353
Manager: TERRY LLOYD
1300 NINTH ST
ST CLOUD, FL 34769
Phone 407-534-4712

Additional Remarks

CALL ARPT MGR FOR PRKG RQNS.

Instrument Procedures

There are no published instrument procedures at 3FL.

Some nearby airports with instrument procedures:

KISM - Kissimmee Gateway Airport (8 nm W)
KMCO - Orlando International Airport (9 nm N)
KORL - Executive Airport (16 nm N)
KGIF - Winter Haven Regional Airport (28 nm SW)
X07 - Lake Wales Municipal Airport (29 nm SW)
 
Loc | Ops | Rwys | IFR | FBO | Links
Com | Nav | Svcs | Stats | Notes


 
Aerial photo
No photo
 
Airport distance calculator
Flying to St Cloud Seaplane Base? Find the distance to fly.

From to 3FL

Sunrise and sunset
Times for 05-Feb-2023
 Local
(UTC-5)
 Zulu
(UTC)
Morning civil twilight06:4711:47
Sunrise07:1112:11
Sunset18:0723:07
Evening civil twilight18:3123:31

Current date and time
Zulu (UTC)  06-Feb-2023 00:35:17
Local (UTC-5)  05-Feb-2023 19:35:17
 
METAR
KISM 
8nm W 
052356Z 05004KT 10SM CLR 21/17 A3011 RMK AO2 SLP196 6//// T02110167 10239 20211 52006 PNO $
KMCO 
9nm N 
052353Z 01006KT 10SM FEW090 OVC190 20/16 A3009 RMK AO2 SLP188 T02000161 10244 20200 50008 $
KORL 
17nm N 
052353Z 03005KT 10SM CLR 20/16 A3009 RMK AO2 SLP194 T02000161 10244 20200 50004
TAF
KISM 
8nm W 
051740Z 0518/0618 02004KT P6SM VCSH SCT015 OVC090 TEMPO 0518/0520 BKN015 FM052000 02009KT P6SM FEW020 BKN050 FM060300 35005KT P6SM BKN060 FM061500 36008KT P6SM FEW040
KMCO 
9nm N 
052059Z 0521/0624 02009KT P6SM SCT030 SCT100 BKN250 FM060300 35005KT P6SM BKN060 FM061500 36008KT P6SM FEW040
NOTAMs
Click for the latest NOTAMs
NOTAMs are issued by the DoD/FAA and will open in a separate window not controlled by AirNav.

 

 
 

Would you like to see your business listed on this page?

 If your business provides an interesting product or service to pilots, flight crews, aircraft, or users of the St Cloud Seaplane Base, you should consider listing it here.  To start the listing process, click on the button below
 
Add a business
 

Other Pages about St Cloud Seaplane Base

Update a link
 
Copyright © AirNav, LLC. All rights reserved. Privacy Policy  Contact